Burton Joyce, United Kingdom
Current Conditions -  °F | °C
As of 8:20 PM on Wednesday 28 Jan 2015 (Local Time) from EGNX Reporting Station
Few Clouds Few Clouds  
Wind Chill: -4°   Ceiling: Unl
Heat Index:   Visibility: 6mi
Dew Point: -1°   Wind: 22mph
Humidity: 81%   Direction: 240°WSW
Pressure: 29.44"   Gusts: NA
Location:  52.99°N, 1.03°W
Report Text: EGNX 282020Z 24019KT 9999 FEW031 02/M01 Q0997
Loading
Personal Weather Stations






























Interactive Weather Map New forecast layout! Learn more

10-Day Weather Forecast

Advertisements
Track Severe Weather on mobile